Time;durP1;ratioP1;P1;durP2;ratioP2;P2;SDS_P1;SDS_P2;PMS_P1;PMS_P2;Temp;Humidity;BMP_temperature;BMP_pressure;BME280_temperature;BME280_humidity;BME280_pressure;Samples;Min_cycle;Max_cycle;Signal;HPM_P1;HPM_P2
2022/06/01 00:01:54;;;;;;;11.75;5.20;;;21.90;99.90;;;;;;5048546;28;20399;-77
2022/06/01 00:04:22;;;;;;;9.52;4.78;;;22.00;99.90;;;;;;5048608;28;20073;-78
2022/06/01 00:06:50;;;;;;;8.48;4.38;;;21.90;99.90;;;;;;5032403;28;20049;-78
2022/06/01 00:09:18;;;;;;;6.85;5.03;;;21.90;99.90;;;;;;5048632;28;20041;-77
2022/06/01 00:11:45;;;;;;;7.35;3.78;;;21.80;99.90;;;;;;5048559;28;20045;-77
2022/06/01 00:14:14;;;;;;;8.45;4.55;;;21.90;99.90;;;;;;5031295;28;20048;-76
2022/06/01 00:16:42;;;;;;;8.60;5.30;;;21.90;99.90;;;;;;5031376;28;20140;-78
2022/06/01 00:19:12;;;;;;;6.93;4.47;;;21.90;99.90;;;;;;5048805;28;20109;-76
2022/06/01 00:22:11;;;;;;;13.00;5.95;;;21.90;99.90;;;;;;5032475;28;20239;-77
2022/06/01 00:24:27;;;;;;;11.25;5.32;;;21.90;99.90;;;;;;5048681;28;20045;-78
2022/06/01 00:26:54;;;;;;;8.27;4.53;;;22.00;99.90;;;;;;5027039;28;20058;-76
2022/06/01 00:29:22;;;;;;;7.95;4.32;;;22.10;99.90;;;;;;5045266;28;20045;-78
2022/06/01 00:31:49;;;;;;;7.57;4.25;;;22.00;99.90;;;;;;5045032;28;20045;-79
2022/06/01 00:34:17;;;;;;;10.00;4.80;;;22.00;99.90;;;;;;5028423;28;20752;-77
2022/06/01 00:36:45;;;;;;;17.92;5.07;;;22.00;99.90;;;;;;5028802;28;20045;-77
2022/06/01 00:39:12;;;;;;;8.52;5.00;;;22.00;99.90;;;;;;5029949;28;20140;-78
2022/06/01 00:41:41;;;;;;;8.77;5.15;;;22.00;99.90;;;;;;5029851;28;20068;-78
2022/06/01 00:44:08;;;;;;;8.15;4.63;;;22.00;99.90;;;;;;5046212;28;20141;-77
2022/06/01 00:46:36;;;;;;;8.48;4.63;;;21.90;99.90;;;;;;5032349;28;20144;-76
2022/06/01 00:49:18;;;;;;;8.43;4.30;;;21.80;99.90;;;;;;5033366;28;20152;-77
2022/06/01 00:51:47;;;;;;;9.30;4.47;;;21.80;99.90;;;;;;5031987;28;20116;-79
2022/06/01 00:54:16;;;;;;;11.50;5.68;;;21.70;99.90;;;;;;5047977;28;20046;-77
2022/06/01 00:56:47;;;;;;;9.15;4.18;;;21.70;99.90;;;;;;5032011;28;20144;-76
2022/06/01 00:59:19;;;;;;;9.23;4.20;;;21.70;99.90;;;;;;5032120;28;20053;-77
2022/06/01 01:01:48;;;;;;;9.00;4.60;;;21.70;99.90;;;;;;5032392;28;20057;-77
2022/06/01 01:04:16;;;;;;;11.05;4.80;;;21.70;99.90;;;;;;5015595;28;20049;-79
2022/06/01 01:06:44;;;;;;;9.50;4.55;;;21.60;99.90;;;;;;5031948;28;20046;-77
2022/06/01 01:09:12;;;;;;;11.23;4.40;;;21.60;99.90;;;;;;5031580;28;20056;-78
2022/06/01 01:11:46;;;;;;;6.47;3.92;;;21.60;99.90;;;;;;5047983;28;20060;-78
2022/06/01 01:14:16;;;;;;;12.02;4.43;;;21.70;99.90;;;;;;5049235;28;20041;-77
2022/06/01 01:16:44;;;;;;;6.60;4.13;;;21.60;99.90;;;;;;5051788;28;20103;-77
2022/06/01 01:19:33;;;;;;;7.85;4.93;;;21.70;99.90;;;;;;5035051;28;20078;-76
2022/06/01 01:22:37;;;;;;;10.68;4.55;;;21.70;99.90;;;;;;5034947;28;20063;-77
2022/06/01 01:25:23;;;;;;;9.13;5.03;;;21.80;99.90;;;;;;5034557;28;20099;-78
2022/06/01 01:27:56;;;;;;;7.18;4.60;;;21.80;99.90;;;;;;5035039;28;20130;-77
2022/06/01 01:30:38;;;;;;;8.15;3.95;;;21.80;99.90;;;;;;5034382;28;20048;-77
2022/06/01 01:33:18;;;;;;;7.93;4.43;;;21.80;99.90;;;;;;5015169;28;20056;-78
2022/06/01 01:35:50;;;;;;;13.50;5.28;;;21.80;99.90;;;;;;5033072;28;20053;-77
2022/06/01 01:38:50;;;;;;;7.10;4.20;;;21.80;99.90;;;;;;5050971;28;20395;-77
2022/06/01 01:41:27;;;;;;;14.93;4.90;;;21.80;99.90;;;;;;5034158;28;20049;-78
2022/06/01 01:44:23;;;;;;;13.80;4.55;;;21.80;99.90;;;;;;5051552;28;20077;-77
2022/06/01 01:46:50;;;;;;;6.38;4.15;;;21.80;99.90;;;;;;5051445;28;20093;-78
2022/06/01 01:49:21;;;;;;;10.27;4.60;;;21.80;99.90;;;;;;5034760;28;20044;-78
2022/06/01 01:51:51;;;;;;;6.55;3.85;;;21.90;99.90;;;;;;5050654;28;20064;-77
2022/06/01 01:54:25;;;;;;;7.60;4.20;;;21.80;99.90;;;;;;5050782;28;20395;-78
2022/06/01 01:57:01;;;;;;;10.55;5.13;;;21.80;99.90;;;;;;5049601;28;20646;-79
2022/06/01 01:59:35;;;;;;;7.03;3.83;;;21.80;99.90;;;;;;5034264;28;20079;-76
2022/06/01 02:02:18;;;;;;;10.13;4.40;;;21.80;99.90;;;;;;5052023;28;20452;-78
2022/06/01 02:07:56;;;;;;;;;;;21.70;99.90;;;;;;5046332;28;20499;-77
2022/06/01 02:13:11;;;;;;;5.65;4.10;;;21.70;99.90;;;;;;5048949;28;20048;-77
2022/06/01 02:15:41;;;;;;;8.38;4.50;;;21.80;99.90;;;;;;5017440;28;20044;-77
2022/06/01 02:18:15;;;;;;;12.20;5.65;;;21.80;99.90;;;;;;5033422;28;20045;-78
2022/06/01 02:20:47;;;;;;;11.45;3.58;;;21.80;99.90;;;;;;5034109;28;20122;-76
2022/06/01 02:23:16;;;;;;;8.48;4.13;;;21.90;99.90;;;;;;5050191;28;20049;-78
2022/06/01 02:25:48;;;;;;;8.38;3.83;;;21.90;99.90;;;;;;5033338;28;20060;-78
2022/06/01 02:28:16;;;;;;;7.00;3.83;;;21.90;99.90;;;;;;5050466;28;20049;-78
2022/06/01 02:30:45;;;;;;;9.68;4.43;;;22.00;99.90;;;;;;5033843;28;20041;-77
2022/06/01 02:33:18;;;;;;;11.80;4.03;;;22.00;99.90;;;;;;5050214;28;20114;-79
2022/06/01 02:35:50;;;;;;;7.93;4.35;;;22.00;99.90;;;;;;5033548;28;20103;-77
2022/06/01 02:38:38;;;;;;;8.85;3.50;;;22.10;99.90;;;;;;5051418;28;20045;-77
2022/06/01 02:41:06;;;;;;;10.73;4.18;;;22.10;99.90;;;;;;5034066;28;20494;-78
2022/06/01 02:43:49;;;;;;;7.40;3.95;;;22.00;99.90;;;;;;5049317;28;20628;-78
2022/06/01 02:46:16;;;;;;;7.82;4.55;;;22.10;99.90;;;;;;5032953;28;20044;-77
2022/06/01 02:48:45;;;;;;;8.05;4.78;;;22.20;99.90;;;;;;5033986;28;20052;-78
2022/06/01 02:51:15;;;;;;;9.20;4.40;;;22.30;99.90;;;;;;5033496;28;20060;-77
2022/06/01 02:53:43;;;;;;;9.57;5.15;;;22.30;99.90;;;;;;5033626;28;20124;-77
2022/06/01 02:56:11;;;;;;;9.98;4.70;;;22.30;99.90;;;;;;5033023;28;20045;-77
2022/06/01 02:58:39;;;;;;;10.52;4.85;;;22.30;99.90;;;;;;5049788;28;20144;-77
2022/06/01 03:01:08;;;;;;;10.30;4.65;;;22.30;99.90;;;;;;5043585;28;20434;-77
2022/06/01 03:03:36;;;;;;;7.03;4.47;;;22.20;99.90;;;;;;5029958;28;20065;-77
2022/06/01 03:06:03;;;;;;;9.27;4.80;;;22.10;99.90;;;;;;5013253;28;20037;-78
2022/06/01 03:08:32;;;;;;;6.45;4.13;;;22.00;99.90;;;;;;5021037;28;20660;-77
2022/06/01 03:11:00;;;;;;;9.05;3.90;;;22.00;99.90;;;;;;5016626;28;20044;-78
2022/06/01 03:13:27;;;;;;;9.07;4.90;;;22.10;99.90;;;;;;5033083;28;20049;-77
2022/06/01 03:15:55;;;;;;;7.22;3.58;;;22.10;99.90;;;;;;5016458;28;20152;-78
2022/06/01 03:18:23;;;;;;;11.00;3.83;;;22.10;99.90;;;;;;5016461;28;20645;-77
2022/06/01 03:20:50;;;;;;;9.25;5.10;;;22.20;99.90;;;;;;5016673;28;20048;-78
2022/06/01 03:23:19;;;;;;;9.73;4.38;;;22.20;99.90;;;;;;5033177;28;20049;-77
2022/06/01 03:25:46;;;;;;;9.80;4.85;;;22.10;99.90;;;;;;5033113;28;20407;-78
2022/06/01 03:28:15;;;;;;;9.68;4.50;;;22.10;99.90;;;;;;5048872;28;20078;-79
2022/06/01 03:30:43;;;;;;;7.65;4.72;;;22.00;99.90;;;;;;5032757;28;20164;-77
2022/06/01 03:33:13;;;;;;;12.60;5.72;;;21.90;99.90;;;;;;5049245;28;20043;-79
2022/06/01 03:35:41;;;;;;;15.85;6.35;;;21.90;99.90;;;;;;5032143;28;20118;-80
2022/06/01 03:38:08;;;;;;;15.93;6.60;;;21.80;99.90;;;;;;5031716;28;20495;-78
2022/06/01 03:40:37;;;;;;;8.07;5.68;;;21.80;99.90;;;;;;5049041;28;20061;-78
2022/06/01 03:43:05;;;;;;;13.32;5.38;;;21.90;99.90;;;;;;5032989;28;20728;-78
2022/06/01 03:48:20;;;;;;;10.95;5.80;;;22.00;99.90;;;;;;5049129;28;20041;-78
2022/06/01 03:50:48;;;;;;;8.88;5.65;;;22.00;99.90;;;;;;5048564;28;20079;-78
2022/06/01 03:53:15;;;;;;;10.70;4.82;;;22.00;99.90;;;;;;5050575;28;20045;-78
2022/06/01 03:55:43;;;;;;;8.02;5.18;;;22.10;99.90;;;;;;5049311;28;20049;-78
2022/06/01 03:58:17;;;;;;;14.45;6.65;;;22.20;99.90;;;;;;5016348;28;20057;-77
2022/06/01 04:00:45;;;;;;;10.43;5.60;;;22.30;99.90;;;;;;5016322;28;20049;-78
2022/06/01 04:03:13;;;;;;;8.25;4.97;;;22.40;99.90;;;;;;5031802;28;20076;-79
2022/06/01 04:05:41;;;;;;;14.30;5.95;;;22.50;99.90;;;;;;5048972;28;20099;-77
2022/06/01 04:08:09;;;;;;;10.45;5.13;;;22.50;99.90;;;;;;5032095;28;20056;-78
2022/06/01 04:10:39;;;;;;;12.23;4.95;;;22.60;99.90;;;;;;5048370;28;20045;-78
2022/06/01 04:13:06;;;;;;;17.50;5.93;;;22.60;99.90;;;;;;5032270;28;20053;-77
2022/06/01 04:15:34;;;;;;;12.02;4.35;;;22.80;99.90;;;;;;5049927;28;20438;-77
2022/06/01 04:18:02;;;;;;;11.23;4.88;;;22.80;99.90;;;;;;5033372;28;20040;-77
2022/06/01 04:20:30;;;;;;;12.00;4.68;;;22.90;99.90;;;;;;5052292;28;20064;-77
2022/06/01 04:22:58;;;;;;;11.27;4.70;;;23.00;99.90;;;;;;5052483;28;20090;-78
2022/06/01 04:25:28;;;;;;;8.50;4.03;;;23.20;99.90;;;;;;5036156;28;20045;-78
2022/06/01 04:27:56;;;;;;;13.52;4.80;;;23.30;99.90;;;;;;5053361;28;20084;-78
2022/06/01 04:30:25;;;;;;;8.30;4.30;;;23.40;99.90;;;;;;5052391;28;20071;-78
2022/06/01 04:33:02;;;;;;;7.53;3.75;;;23.50;99.90;;;;;;5037201;28;20768;-78
2022/06/01 04:35:29;;;;;;;14.02;5.22;;;23.70;99.90;;;;;;5035749;28;20104;-78
2022/06/01 04:38:12;;;;;;;6.72;4.78;;;23.80;99.90;;;;;;5051943;28;20048;-78
2022/06/01 04:40:46;;;;;;;8.70;4.40;;;24.00;99.90;;;;;;5052512;28;20067;-78
2022/06/01 04:43:23;;;;;;;8.68;4.18;;;24.10;99.90;;;;;;5035661;28;20566;-79
2022/06/01 04:45:54;;;;;;;6.90;3.67;;;24.30;99.90;;;;;;5019609;28;20056;-77
2022/06/01 04:48:22;;;;;;;12.20;4.15;;;24.40;99.90;;;;;;5051821;28;20051;-78
2022/06/01 04:50:51;;;;;;;13.82;5.15;;;24.50;99.90;;;;;;5006567;28;20076;-78
2022/06/01 04:53:19;;;;;;;10.98;4.25;;;24.70;99.90;;;;;;5032125;28;20041;-77
2022/06/01 04:55:47;;;;;;;7.18;3.92;;;24.80;99.90;;;;;;5032886;28;20038;-78
2022/06/01 04:58:15;;;;;;;7.88;3.90;;;24.90;99.90;;;;;;4998678;28;20165;-77
2022/06/01 05:00:44;;;;;;;8.52;4.55;;;25.10;99.90;;;;;;5032053;28;20072;-79
2022/06/01 05:03:13;;;;;;;10.25;3.65;;;25.20;99.90;;;;;;5033489;28;20123;-78
2022/06/01 05:05:41;;;;;;;7.30;3.92;;;25.40;99.90;;;;;;5033140;28;20095;-77
2022/06/01 05:08:12;;;;;;;20.42;4.80;;;25.50;99.90;;;;;;5031747;28;20053;-78
2022/06/01 05:10:40;;;;;;;9.30;3.47;;;25.70;99.90;;;;;;5015192;28;20455;-77
2022/06/01 05:13:09;;;;;;;9.38;3.35;;;25.80;99.90;;;;;;5015539;28;20037;-77
2022/06/01 05:15:55;;;;;;;15.20;3.85;;;25.90;99.90;;;;;;5015636;28;20844;-77
2022/06/01 05:18:23;;;;;;;7.25;2.72;;;26.00;99.90;;;;;;5014957;28;20040;-79
2022/06/01 05:20:54;;;;;;;11.82;3.33;;;26.20;99.90;;;;;;5031087;28;20252;-78
2022/06/01 05:23:24;;;;;;;5.68;3.75;;;26.30;99.90;;;;;;4999161;28;20089;-78
2022/06/01 05:25:54;;;;;;;7.82;3.40;;;26.40;99.90;;;;;;5014896;28;20553;-78
2022/06/01 05:28:24;;;;;;;8.13;4.53;;;26.50;99.90;;;;;;5031626;28;20418;-77
2022/06/01 05:31:04;;;;;;;10.57;5.35;;;26.60;99.90;;;;;;4998000;28;20049;-79
2022/06/01 05:33:32;;;;;;;12.43;4.85;;;26.70;99.90;;;;;;5015858;28;20140;-78
2022/06/01 05:36:00;;;;;;;14.05;5.20;;;26.80;99.90;;;;;;5038125;28;20049;-77
2022/06/01 05:38:28;;;;;;;12.73;4.45;;;26.80;99.90;;;;;;5037549;28;20139;-78
2022/06/01 05:40:56;;;;;;;10.30;4.30;;;26.90;99.90;;;;;;5054565;28;20118;-78
2022/06/01 05:43:24;;;;;;;8.52;3.85;;;27.00;99.90;;;;;;5037629;28;20048;-78
2022/06/01 05:45:51;;;;;;;10.23;3.92;;;27.10;99.90;;;;;;5054790;28;20053;-78
2022/06/01 05:48:21;;;;;;;11.75;3.88;;;27.20;99.90;;;;;;5054063;28;20044;-78
2022/06/01 05:50:49;;;;;;;13.27;4.38;;;27.30;99.90;;;;;;5044088;28;20067;-78
2022/06/01 05:53:17;;;;;;;12.35;4.53;;;27.40;99.90;;;;;;5037762;28;20812;-78
2022/06/01 05:55:44;;;;;;;13.90;3.75;;;27.60;99.90;;;;;;5038353;28;20049;-78
2022/06/01 05:58:15;;;;;;;7.70;4.22;;;27.70;99.90;;;;;;5053908;28;20041;-78
2022/06/01 06:00:44;;;;;;;11.75;4.35;;;27.80;99.90;;;;;;5071862;28;20063;-79
2022/06/01 06:03:13;;;;;;;12.57;3.90;;;27.90;99.90;;;;;;5054093;28;20398;-78
2022/06/01 06:08:28;;;;;;;14.10;4.03;;;28.10;99.90;;;;;;5071785;28;20433;-78
2022/06/01 06:10:56;;;;;;;9.30;3.20;;;28.20;99.90;;;;;;5054104;28;20043;-78
2022/06/01 06:13:23;;;;;;;8.63;3.45;;;28.30;99.90;;;;;;5053538;28;20079;-79
2022/06/01 06:15:51;;;;;;;8.07;3.42;;;28.40;99.90;;;;;;5037305;28;20062;-79
2022/06/01 06:18:18;;;;;;;12.75;3.50;;;28.50;99.90;;;;;;5037235;28;20064;-79
2022/06/01 06:20:46;;;;;;;10.05;3.58;;;28.70;99.90;;;;;;5053727;28;20443;-79
2022/06/01 06:23:14;;;;;;;14.23;3.72;;;28.80;99.90;;;;;;5053639;28;20048;-78
2022/06/01 06:25:42;;;;;;;14.57;3.30;;;28.80;99.90;;;;;;5036754;28;20106;-79
2022/06/01 06:28:10;;;;;;;9.98;4.13;;;28.90;99.90;;;;;;5071157;28;20089;-78
2022/06/01 06:30:39;;;;;;;8.02;4.57;;;28.90;99.90;;;;;;5071435;28;20117;-79
2022/06/01 06:33:07;;;;;;;12.65;4.72;;;28.90;99.90;;;;;;5053323;28;20044;-78
2022/06/01 06:35:35;;;;;;;11.82;4.25;;;29.00;99.90;;;;;;5020304;28;20118;-78
2022/06/01 06:38:04;;;;;;;10.65;3.75;;;29.00;99.80;;;;;;5053398;28;20511;-78
2022/06/01 06:40:32;;;;;;;9.68;3.67;;;29.00;99.90;;;;;;5053858;28;20055;-78
2022/06/01 06:42:59;;;;;;;6.97;3.55;;;29.00;99.60;;;;;;5052334;28;20413;-79
2022/06/01 06:45:27;;;;;;;11.50;4.22;;;29.10;99.40;;;;;;5052855;28;20578;-79
2022/06/01 06:47:55;;;;;;;9.98;3.50;;;29.20;99.20;;;;;;5052936;28;20040;-79
2022/06/01 06:50:23;;;;;;;11.20;3.95;;;29.30;99.10;;;;;;5047045;28;20055;-78
2022/06/01 06:53:05;;;;;;;8.68;3.65;;;29.30;98.80;;;;;;5071072;28;20056;-76
2022/06/01 06:55:32;;;;;;;10.73;4.65;;;29.30;98.80;;;;;;5070711;28;20036;-76
2022/06/01 06:58:00;;;;;;;10.18;3.30;;;29.40;99.00;;;;;;5053141;28;20119;-77
2022/06/01 07:00:27;;;;;;;8.77;4.15;;;29.30;98.90;;;;;;5052387;28;20062;-77
2022/06/01 07:02:55;;;;;;;7.53;3.92;;;29.30;98.70;;;;;;5052571;28;20552;-76
2022/06/01 07:08:08;;;;;;;14.07;4.07;;;29.40;98.90;;;;;;5052729;28;20048;-76
2022/06/01 07:10:36;;;;;;;8.43;4.88;;;29.40;98.70;;;;;;5052802;28;20075;-77
2022/06/01 07:13:04;;;;;;;11.05;4.50;;;29.50;98.30;;;;;;5069489;28;20407;-76
2022/06/01 07:15:31;;;;;;;9.90;3.80;;;29.60;98.30;;;;;;5052573;28;20167;-77
2022/06/01 07:17:59;;;;;;;8.52;4.50;;;29.70;98.30;;;;;;5073617;28;20119;-76
2022/06/01 07:20:26;;;;;;;12.55;4.20;;;29.80;97.90;;;;;;5082021;28;20117;-75
2022/06/01 07:22:56;;;;;;;10.68;4.47;;;29.90;97.60;;;;;;5061563;28;20051;-78
2022/06/01 07:25:25;;;;;;;7.55;4.82;;;30.00;97.70;;;;;;5035840;28;20044;-76
2022/06/01 07:27:54;;;;;;;9.23;3.90;;;30.00;97.70;;;;;;5035976;28;20137;-77
2022/06/01 07:30:21;;;;;;;10.75;4.38;;;30.10;97.70;;;;;;5043004;28;20135;-78
2022/06/01 07:32:49;;;;;;;9.98;4.55;;;30.00;97.70;;;;;;5052185;28;20045;-77
2022/06/01 07:35:18;;;;;;;7.68;4.20;;;30.00;97.70;;;;;;5009488;28;20063;-78
2022/06/01 07:43:39;;;;;;;12.32;5.45;;;30.20;97.60;;;;;;4969341;28;20043;-77
2022/06/01 07:46:08;;;;;;;15.35;4.30;;;30.20;97.50;;;;;;5013225;28;20077;-79
2022/06/01 07:48:35;;;;;;;11.10;4.68;;;30.20;97.60;;;;;;5049242;28;20151;-78
2022/06/01 07:51:23;;;;;;;12.23;4.97;;;30.30;97.20;;;;;;5043021;28;20037;-78
2022/06/01 07:53:51;;;;;;;8.80;4.57;;;30.40;97.30;;;;;;5051130;28;20049;-77
2022/06/01 07:56:18;;;;;;;13.50;5.20;;;30.50;96.90;;;;;;5052943;28;20044;-77
2022/06/01 07:58:46;;;;;;;10.45;4.38;;;30.20;96.90;;;;;;5036725;28;20055;-77
2022/06/01 08:01:14;;;;;;;11.13;4.15;;;30.30;96.90;;;;;;5054325;28;20048;-78
2022/06/01 08:03:41;;;;;;;12.35;4.22;;;30.10;96.70;;;;;;5036510;28;20049;-78
2022/06/01 08:06:09;;;;;;;11.45;4.40;;;30.20;96.90;;;;;;5036279;28;20060;-78
2022/06/01 08:08:38;;;;;;;9.27;4.32;;;30.20;96.90;;;;;;5049299;28;20036;-80
2022/06/01 08:11:05;;;;;;;8.60;3.90;;;30.30;96.50;;;;;;5032940;28;20145;-79
2022/06/01 08:13:33;;;;;;;7.90;4.03;;;30.30;95.80;;;;;;5050791;28;20052;-79
2022/06/01 08:16:01;;;;;;;10.98;4.47;;;30.50;95.60;;;;;;5050489;28;20044;-79
2022/06/01 08:18:29;;;;;;;11.63;4.43;;;30.50;95.70;;;;;;5033274;28;20072;-77
2022/06/01 08:20:57;;;;;;;10.45;3.83;;;30.70;95.50;;;;;;5033733;28;20267;-78
2022/06/01 08:23:28;;;;;;;12.05;4.63;;;30.80;95.40;;;;;;5027899;28;20117;-77
2022/06/01 08:25:56;;;;;;;9.43;3.70;;;30.70;94.90;;;;;;5035455;28;20049;-77
2022/06/01 08:28:24;;;;;;;11.23;4.30;;;30.60;94.80;;;;;;5030426;28;20045;-77
2022/06/01 08:30:52;;;;;;;8.45;3.97;;;30.50;94.70;;;;;;5038534;28;20719;-76
2022/06/01 08:33:20;;;;;;;10.80;3.72;;;30.40;94.90;;;;;;5043080;28;20124;-77
2022/06/01 08:35:51;;;;;;;12.68;3.72;;;30.40;94.80;;;;;;5028374;28;20061;-78
2022/06/01 08:38:19;;;;;;;5.65;3.45;;;30.30;94.80;;;;;;5033534;28;20134;-78
2022/06/01 08:40:53;;;;;;;14.10;4.10;;;30.50;94.70;;;;;;5018416;28;20502;-78
2022/06/01 08:43:25;;;;;;;6.65;4.03;;;30.60;94.70;;;;;;5018762;28;20104;-78
2022/06/01 08:46:00;;;;;;;9.65;3.92;;;30.60;94.90;;;;;;5032171;28;20045;-77
2022/06/01 08:48:43;;;;;;;13.20;4.72;;;30.70;94.70;;;;;;5031570;28;20111;-78
2022/06/01 08:51:11;;;;;;;9.68;3.90;;;30.70;94.80;;;;;;5014859;28;20045;-78
2022/06/01 08:53:39;;;;;;;9.93;4.63;;;30.70;94.70;;;;;;5049193;28;20053;-78
2022/06/01 08:56:18;;;;;;;10.05;4.65;;;30.70;95.00;;;;;;5050212;28;20392;-79
2022/06/01 08:59:00;;;;;;;12.50;3.53;;;30.90;94.70;;;;;;5032213;28;20098;-78
2022/06/01 09:01:45;;;;;;;7.18;4.05;;;30.80;94.50;;;;;;5036467;28;20501;-72
2022/06/01 09:04:55;;;;;;;9.73;3.97;;;30.60;94.60;;;;;;5053726;28;20584;-73
2022/06/01 09:07:37;;;;;;;10.75;3.50;;;30.70;94.60;;;;;;5025158;28;20483;-72
2022/06/01 09:10:29;;;;;;;15.45;5.15;;;30.70;94.00;;;;;;5054242;28;20048;-72
2022/06/01 09:13:23;;;;;;;11.52;3.30;;;30.80;93.60;;;;;;5052353;28;20037;-74
2022/06/01 09:16:23;;;;;;;10.88;3.67;;;30.80;93.50;;;;;;5040926;28;20103;-79
2022/06/01 09:18:53;;;;;;;9.07;3.95;;;30.90;93.20;;;;;;5028638;28;20047;-72
2022/06/01 09:24:32;;;;;;;8.05;4.03;;;31.00;92.80;;;;;;5031609;28;20049;-73
2022/06/01 09:27:09;;;;;;;8.90;3.22;;;31.10;92.80;;;;;;5055291;28;20048;-72
2022/06/01 09:29:49;;;;;;;10.40;3.45;;;31.00;91.80;;;;;;5054258;28;20438;-72
2022/06/01 09:32:31;;;;;;;11.60;2.90;;;31.10;91.90;;;;;;5016721;28;20049;-74
2022/06/01 09:35:07;;;;;;;11.65;4.55;;;31.20;91.30;;;;;;5032567;28;20064;-73
2022/06/01 09:37:36;;;;;;;;;;;31.20;91.20;;;;;;5025839;28;20048;-74
2022/06/01 09:40:22;;;;;;;11.77;3.55;;;31.30;90.70;;;;;;5053697;28;20407;-73
2022/06/01 09:42:52;;;;;;;9.70;3.85;;;31.40;90.30;;;;;;5048109;28;20090;-73
2022/06/01 09:45:25;;;;;;;13.20;3.67;;;31.40;90.70;;;;;;5052947;28;20136;-74
2022/06/01 09:48:10;;;;;;;10.68;3.25;;;31.30;90.00;;;;;;5042382;28;20102;-72
2022/06/01 09:50:41;;;;;;;11.70;4.20;;;31.40;89.60;;;;;;5040588;28;20049;-73
2022/06/01 09:53:19;;;;;;;9.57;4.25;;;31.40;91.00;;;;;;5052434;28;20538;-73
2022/06/01 09:55:53;;;;;;;12.18;3.85;;;31.40;90.10;;;;;;5019467;28;20045;-73
2022/06/01 10:07:30;;;;;;;10.50;3.08;;;30.90;90.20;;;;;;5053085;28;20045;-73
2022/06/01 10:10:01;;;;;;;9.85;4.10;;;31.10;90.80;;;;;;5043802;28;20049;-74
2022/06/01 10:12:43;;;;;;;14.32;4.03;;;31.10;90.70;;;;;;5033757;28;20049;-75
2022/06/01 10:15:36;;;;;;;12.02;3.20;;;31.00;90.90;;;;;;5036249;28;20047;-73
2022/06/01 10:18:21;;;;;;;10.25;3.35;;;31.00;89.60;;;;;;5014905;28;20041;-73
2022/06/01 10:20:57;;;;;;;7.20;2.65;;;31.00;90.20;;;;;;5051212;28;20049;-75
2022/06/01 10:23:29;;;;;;;13.20;3.40;;;31.00;90.40;;;;;;5034950;28;20048;-74
2022/06/01 10:26:03;;;;;;;8.48;3.55;;;31.10;90.60;;;;;;5033946;28;20048;-72
2022/06/01 10:28:39;;;;;;;10.52;3.10;;;31.10;90.10;;;;;;5052117;28;20033;-73
2022/06/01 10:31:38;;;;;;;8.48;3.25;;;31.10;90.00;;;;;;5050679;28;20099;-72
2022/06/01 10:34:14;;;;;;;9.75;3.33;;;31.20;89.60;;;;;;5050163;28;20057;-72
2022/06/01 10:37:03;;;;;;;10.85;3.72;;;31.20;90.00;;;;;;5034216;28;20044;-72
2022/06/01 10:39:43;;;;;;;10.32;3.90;;;31.20;87.10;;;;;;5014124;28;20588;-73
2022/06/01 10:45:35;;;;;;;9.27;3.38;;;31.20;90.20;;;;;;5031527;28;20506;-73
2022/06/01 10:48:28;;;;;;;11.55;4.63;;;31.10;90.30;;;;;;5029854;28;20518;-75
2022/06/01 10:51:07;;;;;;;12.07;4.18;;;31.10;90.20;;;;;;5014344;28;20052;-72
2022/06/01 10:54:00;;;;;;;9.35;3.47;;;31.10;90.50;;;;;;5037581;28;20072;-80
2022/06/01 10:56:30;;;;;;;8.93;3.97;;;31.10;91.10;;;;;;5050985;28;20045;-72
2022/06/01 10:59:08;;;;;;;9.00;3.85;;;30.90;90.50;;;;;;5048785;28;20099;-74
2022/06/01 11:02:07;;;;;;;11.13;4.35;;;30.90;90.60;;;;;;5035926;28;20049;-71
2022/06/01 11:04:56;;;;;;;6.18;3.20;;;30.80;90.00;;;;;;5031402;28;20124;-72
2022/06/01 11:07:52;;;;;;;9.77;3.65;;;30.70;90.70;;;;;;5048178;28;20095;-71
2022/06/01 11:10:44;;;;;;;7.68;3.38;;;30.50;90.70;;;;;;5024291;28;20042;-75
2022/06/01 11:13:23;;;;;;;9.88;3.75;;;30.40;90.80;;;;;;5005955;28;20045;-72
2022/06/01 11:16:06;;;;;;;10.82;3.80;;;30.40;91.30;;;;;;5050688;28;20064;-74
2022/06/01 11:18:51;;;;;;;8.48;3.03;;;30.50;90.70;;;;;;5050487;28;20049;-73
2022/06/01 11:21:28;;;;;;;7.82;3.65;;;30.50;90.80;;;;;;5030141;28;20085;-71
2022/06/01 11:24:23;;;;;;;8.32;3.53;;;30.50;91.10;;;;;;5034161;28;20136;-74
2022/06/01 11:27:18;;;;;;;9.25;3.53;;;30.50;90.80;;;;;;5009521;28;20733;-72
2022/06/01 11:29:55;;;;;;;10.05;3.20;;;30.50;90.20;;;;;;5030012;28;20052;-73
2022/06/01 11:32:58;;;;;;;7.82;3.65;;;30.50;90.20;;;;;;5030664;28;20049;-72
2022/06/01 11:35:33;;;;;;;11.90;4.05;;;30.50;91.00;;;;;;5048959;28;20041;-72
2022/06/01 11:38:32;;;;;;;10.07;3.33;;;30.40;91.50;;;;;;5033843;28;20380;-72
2022/06/01 11:41:11;;;;;;;12.48;3.95;;;30.30;91.50;;;;;;5023424;28;20056;-72
2022/06/01 11:43:49;;;;;;;11.27;4.47;;;30.20;91.70;;;;;;5050601;28;20045;-74
2022/06/01 11:46:38;;;;;;;10.88;4.07;;;30.20;91.60;;;;;;5050320;28;20045;-73
2022/06/01 11:49:29;;;;;;;9.55;4.15;;;30.20;92.10;;;;;;5049923;28;20437;-75
2022/06/01 11:52:24;;;;;;;9.88;3.60;;;30.10;91.80;;;;;;5050074;28;20079;-73
2022/06/01 11:55:20;;;;;;;10.77;4.50;;;30.10;92.30;;;;;;5049578;28;20037;-72
2022/06/01 11:58:01;;;;;;;10.45;3.42;;;30.00;92.30;;;;;;5033142;28;20148;-73
2022/06/01 12:00:34;;;;;;;9.98;3.85;;;30.00;92.50;;;;;;5049660;28;20076;-75
2022/06/01 12:03:25;;;;;;;10.02;4.20;;;30.00;92.00;;;;;;5033369;28;20049;-75
2022/06/01 12:06:09;;;;;;;11.07;3.65;;;30.00;91.50;;;;;;5038205;28;20604;-74
2022/06/01 12:08:43;;;;;;;7.32;4.07;;;30.00;92.00;;;;;;5047880;28;20559;-74
2022/06/01 12:11:38;;;;;;;6.50;3.72;;;30.10;92.10;;;;;;5048740;28;20090;-72
2022/06/01 12:14:31;;;;;;;13.25;2.97;;;29.90;92.30;;;;;;5050526;28;20045;-72
2022/06/01 12:17:17;;;;;;;7.43;3.13;;;29.90;92.50;;;;;;5033279;28;20136;-72
2022/06/01 12:19:47;;;;;;;;;;;29.90;93.10;;;;;;5049845;28;20076;-73
2022/06/01 12:28:52;;;;;;;10.45;4.18;;;29.40;92.70;;;;;;5043399;28;20064;-72
2022/06/01 12:31:30;;;;;;;10.23;4.45;;;29.40;93.30;;;;;;5030494;28;20187;-73
2022/06/01 12:34:04;;;;;;;12.57;4.72;;;29.50;92.70;;;;;;5032188;28;20782;-72
2022/06/01 12:36:46;;;;;;;8.65;4.97;;;29.50;93.00;;;;;;5048905;28;20045;-71
2022/06/01 12:39:23;;;;;;;9.95;4.72;;;29.50;93.40;;;;;;5033533;28;20509;-72
2022/06/01 12:41:58;;;;;;;8.10;4.80;;;29.40;93.00;;;;;;5051722;28;20037;-71
2022/06/01 12:44:26;;;;;;;9.85;4.90;;;29.30;93.50;;;;;;5051543;28;20124;-72
2022/06/01 12:46:54;;;;;;;8.95;4.18;;;29.40;93.50;;;;;;5016991;28;20045;-72
2022/06/01 12:49:32;;;;;;;11.77;4.65;;;29.50;93.50;;;;;;5046201;28;20128;-74
2022/06/01 12:52:03;;;;;;;6.32;3.88;;;29.50;93.90;;;;;;5045073;28;20047;-72
2022/06/01 12:54:35;;;;;;;10.88;4.90;;;29.40;93.50;;;;;;5048630;28;20045;-74
2022/06/01 12:57:05;;;;;;;13.30;5.05;;;29.40;93.80;;;;;;5040701;28;20065;-71
2022/06/01 12:59:36;;;;;;;13.07;5.47;;;29.40;93.70;;;;;;5016159;28;20080;-73
2022/06/01 13:02:09;;;;;;;12.75;5.43;;;29.40;93.30;;;;;;5020534;28;20454;-72
2022/06/01 13:04:39;;;;;;;9.23;4.68;;;29.40;93.30;;;;;;5021252;28;20067;-75
2022/06/01 13:07:08;;;;;;;11.18;5.38;;;29.40;93.50;;;;;;5025860;28;20167;-73
2022/06/01 13:09:36;;;;;;;12.00;5.03;;;29.50;93.80;;;;;;5049805;28;20040;-76
2022/06/01 13:12:14;;;;;;;10.60;4.60;;;29.50;93.20;;;;;;5022781;28;20061;-73
2022/06/01 13:14:45;;;;;;;14.27;5.57;;;29.60;93.00;;;;;;5030367;28;20491;-75
2022/06/01 13:17:18;;;;;;;10.85;5.00;;;29.60;93.60;;;;;;5034496;28;20055;-72
2022/06/01 13:20:02;;;;;;;10.02;3.92;;;29.60;93.70;;;;;;5034216;28;20041;-73
2022/06/01 13:22:36;;;;;;;9.00;4.57;;;29.80;93.30;;;;;;5035841;28;20053;-73
2022/06/01 13:25:08;;;;;;;14.85;4.78;;;29.60;93.30;;;;;;5013561;28;20052;-73
2022/06/01 13:27:37;;;;;;;12.32;4.95;;;29.50;92.70;;;;;;5032533;28;20069;-75
2022/06/01 13:30:06;;;;;;;10.18;4.60;;;29.50;92.90;;;;;;5049558;28;20041;-73
2022/06/01 13:32:43;;;;;;;9.48;4.53;;;29.60;93.20;;;;;;5035580;28;20086;-73
2022/06/01 13:35:28;;;;;;;6.70;3.95;;;29.60;93.30;;;;;;5034980;28;20061;-74
2022/06/01 13:37:57;;;;;;;14.07;4.45;;;29.60;93.40;;;;;;5035681;28;20115;-73
2022/06/01 13:40:28;;;;;;;8.05;4.20;;;29.60;93.40;;;;;;5052485;28;20045;-74
2022/06/01 13:43:19;;;;;;;12.00;4.55;;;29.70;93.30;;;;;;5019260;28;20107;-74
2022/06/01 13:46:10;;;;;;;12.80;3.95;;;29.70;93.10;;;;;;5044680;28;20048;-75
2022/06/01 13:48:48;;;;;;;10.68;4.53;;;29.60;92.80;;;;;;5043495;28;20475;-73
2022/06/01 13:51:35;;;;;;;7.95;4.40;;;29.50;92.30;;;;;;5014648;28;20115;-71
2022/06/01 13:54:27;;;;;;;10.63;4.78;;;29.50;92.70;;;;;;5016027;28;20133;-72
2022/06/01 13:57:21;;;;;;;11.75;4.28;;;29.50;93.00;;;;;;5032921;28;20553;-72
2022/06/01 13:59:58;;;;;;;8.73;4.75;;;29.50;93.00;;;;;;5021044;28;20049;-72